Terminal Aerodrome Forecast
Issued by NWS

Home | Current Version | Previous Version | Text Only | Print | Product List | Glossary On
Versions: 1 2 3 4 5 6 7 8 9 10 11 12 13 14 15 16 17 18
000
FTUS44 KLIX 200500
TAFMCB
TAF
KMCB 200530Z 2006/2106 VRB03KT P6SM BKN250
     FM200800 VRB03KT 4SM BR SCT250
     FM201200 VRB03KT P6SM SCT250
     FM201600 20005KT P6SM SCT045
     FM210100 21004KT P6SM SCT250=

USA.gov is the U.S. government's official web portal to all federal, state and local government web resources and services.